Detalii statie AGRONOVA [00001CEC]

Toti senzorii

Date Temperatura solului [C]Precipitatii [mm]Voltaj baterie [mV]Leaf Wetness [Min]HC Air temperature [C]HC Relative humidity [%]Punctul de roua [C]
medieminmaxsumaultimatimpmedieminmaxmediemediemin
2018-10-13 15:00:00 15.4 15.3 15.7 0 7246 21.25 20.93 21.74 0 0 0
2018-10-13 16:00:00 15.6 15.5 15.8 0 7254 20.85 20.46 21.43 0 0 0
2018-10-13 17:00:00 15.6 15.5 15.7 0 7138 19.81 18.81 20.54 0 0 0
2018-10-13 18:00:00 15.4 15.2 15.6 0 6894 17.64 15.83 19.08 0 0 0
2018-10-13 19:00:00 15.1 14.8 15.4 0 6738 14.16 12.1 15.89 0 0 0
2018-10-13 20:00:00 14.8 14.6 15.1 0 6650 12.22 11.43 12.56 0 0 0
2018-10-13 21:00:00 14.5 14.3 14.8 0 6620 10.31 9.42 11.36 0 0 0
2018-10-13 22:00:00 14.1 13.9 14.3 0 6620 8.97 8.2 10.07 0 0 0
2018-10-13 23:00:00 13.8 13.8 14 0 6610 9.06 8.39 10.34 0 0 0
2018-10-14 00:00:00 13.6 13.4 13.8 0 6600 8.9 8.07 10.11 0 0 0
2018-10-14 01:00:00 13.3 13.2 13.6 0 6600 6.32 4.6 7.89 0 0 0
2018-10-14 02:00:00 13.1 12.9 13.2 0 6590 4.7 3.33 7.35 0 0 0
2018-10-14 03:00:00 12.9 12.7 13.1 0 6582 5.06 3.48 6.57 0 0 0
2018-10-14 04:00:00 12.6 12.4 12.8 0 6572 4.64 3.86 5.66 0 0 0
2018-10-14 05:00:00 12.3 12.3 12.5 0 6572 4.4 2.38 5.46 0 0 0
2018-10-14 06:00:00 12.2 12.1 12.4 0 6562 1.75 1.5 2.14 0 0 0
2018-10-14 07:00:00 12 12 12.2 0 6552 1.34 0.85 2.1 0 0 0
2018-10-14 08:00:00 11.8 11.8 12 0 6718 3.03 1.53 4.98 0 0 0
2018-10-14 09:00:00 11.7 11.7 11.8 0 7080 8.84 5.22 11.18 0 0 0
2018-10-14 10:00:00 11.8 11.7 12 0 7254 13.01 11.39 14.24 0 0 0
2018-10-14 11:00:00 12.2 11.9 12.6 0 7254 14.77 13.83 15.61 0 0 0
2018-10-14 12:00:00 12.8 12.4 13.2 0 7236 16.57 15.42 17.58 0 0 0
2018-10-14 13:00:00 13.5 13.2 13.8 0 7254 18.42 18 18.9 0 0 0
2018-10-14 14:00:00 14.1 13.9 14.4 0 7254 19.19 18.75 19.88 0 0 0
2018-10-14 15:00:00 14.5 14.4 14.8 0 7254 19.64 19.13 20.49 0 0 0
2018-10-14 16:00:00 14.8 14.8 15 0 7254 19.24 18.83 19.56 0 0 0
2018-10-14 17:00:00 14.7 14.7 14.9 0 7246 17.89 17.23 18.73 0 0 0
2018-10-14 18:00:00 14.6 14.5 14.8 0 6884 15.96 14.92 17.05 0 0 0
2018-10-14 19:00:00 14.4 14.3 14.5 0 6728 13.32 11.5 14.29 0 0 0
2018-10-14 20:00:00 14 13.9 14.3 0 6630 11.52 10.1 12.74 0 0 0
2018-10-14 21:00:00 13.8 13.7 14 0 6620 10.8 9.66 13.14 0 0 0
2018-10-14 22:00:00 13.6 13.4 13.7 0 6620 8.96 7.01 10.38 0 0 0
2018-10-14 23:00:00 13.3 13.2 13.5 0 6600 7 5.58 8.33 0 0 0
2018-10-15 00:00:00 13.1 12.9 13.2 0 6600 5.73 5.29 5.97 0 0 0
2018-10-15 01:00:00 12.8 12.7 13 0 6600 5.4 4.42 6.28 0 0 0
2018-10-15 02:00:00 12.6 12.5 12.7 0 6590 4.24 3.6 4.73 0 0 0
2018-10-15 03:00:00 12.3 12.3 12.5 0 6582 3.68 2.97 4.59 0 0 0
2018-10-15 04:00:00 12.2 12 12.4 0 6572 2.9 2.02 4.04 0 0 0
2018-10-15 05:00:00 12 11.9 12.1 0 6562 2.76 1.98 3.63 0 0 0
2018-10-15 06:00:00 11.7 11.7 11.9 0 6552 2.65 1.95 3.18 0 0 0
2018-10-15 07:00:00 11.6 11.5 11.7 0 6552 2.3 1.28 3.04 0 0 0
2018-10-15 08:00:00 11.4 11.3 11.7 0 6698 3.92 2.36 6.02 0 0 0
2018-10-15 09:00:00 11.3 11.2 11.4 0 7080 8.96 6.28 11.37 0 0 0
2018-10-15 10:00:00 11.4 11.3 11.6 0 7254 14 12.03 14.89 0 0 0
2018-10-15 11:00:00 11.8 11.6 12.1 0 7254 15.66 14.82 16.81 0 0 0
2018-10-15 12:00:00 12.4 12.2 12.7 0 7246 18.6 17.09 20.27 0 0 0
2018-10-15 13:00:00 13 12.7 13.3 0 7246 19.8 19.33 20.21 0 0 0
2018-10-15 14:00:00 13.7 13.4 14.1 0 7246 19.76 19.07 20.29 0 0 0